Limestone, Maine
Current Conditions -  °F | °C
As of 12:54 AM on Monday 22 Dec 2014 (Local Time) from KCAR Reporting Station
Overcast Overcast  
Wind Chill: 22°   Ceiling: 1100
Heat Index: 22°   Visibility: 10mi
Dew Point: 19°   Wind: 0mph
Humidity: 89%   Direction: NA
Pressure: 30.37"   Gusts: NA
Location:  46.91°N, 67.83°W
Report Text: KCAR 220554Z AUTO 00000KT 10SM OVC011 M06/M07 A3037 RMK AO2 SLP299 T10561072 11050 21056 53007
Loading
Personal Weather Stations






























Interactive Weather Map New forecast layout! Learn more

10-Day Weather Forecast

Advertisements
Track Severe Weather on mobile